Terminal Aerodrome Forecast
Issued by NWS

Home | Current Version | Previous Version | Text Only | Print | Product List | Glossary On
Versions: 1 2 3 4 5 6 7 8 9 10 11 12 13 14 15
000
FTUS41 KPBZ 232321
TAFDUJ
TAF
KDUJ 232321Z 2400/2424 14015G25KT P6SM -RA OVC030
     FM240030 22015G25KT P6SM -RA OVC035
      TEMPO 2401/2404 3SM -RA
     FM240400 15015G25KT P6SM -RA OVC025
     FM240700 20010KT P6SM OVC015
     FM241500 20012G22KT P6SM BKN020
     FM242100 20010G20KT P6SM BKN035=

USA.gov is the U.S. government's official web portal to all federal, state and local government web resources and services.